sensor_id;sensor_type;location;lat;lon;timestamp;P1;durP1;ratioP1;P2;durP2;ratioP2
36651;SDS011;53334;51.976;20.144;2023-05-25T00:01:06;11.13;;;7.97;;
36651;SDS011;53334;51.976;20.144;2023-05-25T00:03:39;10.27;;;7.13;;
36651;SDS011;53334;51.976;20.144;2023-05-25T00:06:14;10.88;;;7.97;;
36651;SDS011;53334;51.976;20.144;2023-05-25T00:08:50;9.05;;;7.45;;
36651;SDS011;53334;51.976;20.144;2023-05-25T00:11:25;7.57;;;6.60;;
36651;SDS011;53334;51.976;20.144;2023-05-25T00:13:59;8.80;;;7.88;;
36651;SDS011;53334;51.976;20.144;2023-05-25T00:16:32;7.95;;;7.18;;
36651;SDS011;53334;51.976;20.144;2023-05-25T00:19:08;8.32;;;7.43;;
36651;SDS011;53334;51.976;20.144;2023-05-25T00:21:42;7.78;;;6.97;;
36651;SDS011;53334;51.976;20.144;2023-05-25T00:24:20;8.73;;;7.45;;
36651;SDS011;53334;51.976;20.144;2023-05-25T00:26:53;9.40;;;7.97;;
36651;SDS011;53334;51.976;20.144;2023-05-25T00:29:27;9.15;;;7.82;;
36651;SDS011;53334;51.976;20.144;2023-05-25T00:32:00;10.80;;;8.27;;
36651;SDS011;53334;51.976;20.144;2023-05-25T00:34:33;7.38;;;6.65;;
36651;SDS011;53334;51.976;20.144;2023-05-25T00:37:08;7.85;;;7.05;;
36651;SDS011;53334;51.976;20.144;2023-05-25T00:39:43;8.50;;;6.15;;
36651;SDS011;53334;51.976;20.144;2023-05-25T00:42:16;8.57;;;7.63;;
36651;SDS011;53334;51.976;20.144;2023-05-25T00:44:50;8.48;;;7.03;;
36651;SDS011;53334;51.976;20.144;2023-05-25T00:47:24;8.38;;;7.25;;
36651;SDS011;53334;51.976;20.144;2023-05-25T00:49:57;8.27;;;7.45;;
36651;SDS011;53334;51.976;20.144;2023-05-25T00:52:33;8.15;;;7.35;;
36651;SDS011;53334;51.976;20.144;2023-05-25T00:55:08;7.18;;;6.47;;
36651;SDS011;53334;51.976;20.144;2023-05-25T00:57:48;8.50;;;6.47;;
36651;SDS011;53334;51.976;20.144;2023-05-25T01:00:26;8.55;;;7.35;;
36651;SDS011;53334;51.976;20.144;2023-05-25T01:03:03;8.05;;;6.88;;
36651;SDS011;53334;51.976;20.144;2023-05-25T01:05:43;7.78;;;6.50;;
36651;SDS011;53334;51.976;20.144;2023-05-25T01:08:19;8.18;;;6.65;;
36651;SDS011;53334;51.976;20.144;2023-05-25T01:10:56;7.85;;;6.75;;
36651;SDS011;53334;51.976;20.144;2023-05-25T01:13:32;8.02;;;7.18;;
36651;SDS011;53334;51.976;20.144;2023-05-25T01:16:08;7.82;;;5.93;;
36651;SDS011;53334;51.976;20.144;2023-05-25T01:18:42;6.75;;;5.95;;
36651;SDS011;53334;51.976;20.144;2023-05-25T01:21:18;7.70;;;6.90;;
36651;SDS011;53334;51.976;20.144;2023-05-25T01:23:58;8.02;;;7.15;;
36651;SDS011;53334;51.976;20.144;2023-05-25T01:26:37;7.60;;;6.40;;
36651;SDS011;53334;51.976;20.144;2023-05-25T01:29:14;9.57;;;6.60;;
36651;SDS011;53334;51.976;20.144;2023-05-25T01:31:49;7.65;;;6.68;;
36651;SDS011;53334;51.976;20.144;2023-05-25T01:34:24;7.05;;;6.30;;
36651;SDS011;53334;51.976;20.144;2023-05-25T01:37:00;8.02;;;7.22;;
36651;SDS011;53334;51.976;20.144;2023-05-25T01:39:34;7.78;;;6.90;;
36651;SDS011;53334;51.976;20.144;2023-05-25T01:42:07;7.13;;;6.43;;
36651;SDS011;53334;51.976;20.144;2023-05-25T01:44:40;7.45;;;6.65;;
36651;SDS011;53334;51.976;20.144;2023-05-25T01:47:15;7.70;;;5.90;;
36651;SDS011;53334;51.976;20.144;2023-05-25T01:49:55;8.65;;;7.47;;
36651;SDS011;53334;51.976;20.144;2023-05-25T01:52:37;6.88;;;6.18;;
36651;SDS011;53334;51.976;20.144;2023-05-25T01:55:16;7.60;;;6.65;;
36651;SDS011;53334;51.976;20.144;2023-05-25T01:57:52;7.18;;;6.40;;
36651;SDS011;53334;51.976;20.144;2023-05-25T02:00:28;7.05;;;6.15;;
36651;SDS011;53334;51.976;20.144;2023-05-25T02:03:02;9.57;;;6.50;;
36651;SDS011;53334;51.976;20.144;2023-05-25T02:05:36;7.25;;;6.55;;
36651;SDS011;53334;51.976;20.144;2023-05-25T02:08:14;7.13;;;6.43;;
36651;SDS011;53334;51.976;20.144;2023-05-25T02:10:48;6.40;;;5.80;;
36651;SDS011;53334;51.976;20.144;2023-05-25T02:13:21;7.45;;;6.68;;
36651;SDS011;53334;51.976;20.144;2023-05-25T02:15:54;8.68;;;6.82;;
36651;SDS011;53334;51.976;20.144;2023-05-25T02:18:28;7.45;;;6.65;;
36651;SDS011;53334;51.976;20.144;2023-05-25T02:21:01;6.63;;;5.97;;
36651;SDS011;53334;51.976;20.144;2023-05-25T02:23:36;11.55;;;6.88;;
36651;SDS011;53334;51.976;20.144;2023-05-25T02:26:10;7.07;;;6.38;;
36651;SDS011;53334;51.976;20.144;2023-05-25T02:28:43;7.30;;;6.32;;
36651;SDS011;53334;51.976;20.144;2023-05-25T02:31:16;7.10;;;6.45;;
36651;SDS011;53334;51.976;20.144;2023-05-25T02:33:50;5.93;;;5.32;;
36651;SDS011;53334;51.976;20.144;2023-05-25T02:36:24;6.45;;;5.60;;
36651;SDS011;53334;51.976;20.144;2023-05-25T02:38:59;6.78;;;6.15;;
36651;SDS011;53334;51.976;20.144;2023-05-25T02:41:32;7.47;;;6.68;;
36651;SDS011;53334;51.976;20.144;2023-05-25T02:44:05;6.75;;;5.82;;
36651;SDS011;53334;51.976;20.144;2023-05-25T02:46:39;6.25;;;5.65;;
36651;SDS011;53334;51.976;20.144;2023-05-25T02:49:12;6.18;;;5.60;;
36651;SDS011;53334;51.976;20.144;2023-05-25T02:54:21;7.73;;;6.27;;
36651;SDS011;53334;51.976;20.144;2023-05-25T02:56:54;7.65;;;5.63;;
36651;SDS011;53334;51.976;20.144;2023-05-25T02:59:27;6.82;;;5.65;;
36651;SDS011;53334;51.976;20.144;2023-05-25T03:04:35;6.60;;;5.90;;
36651;SDS011;53334;51.976;20.144;2023-05-25T03:07:09;6.35;;;5.75;;
36651;SDS011;53334;51.976;20.144;2023-05-25T03:09:44;8.43;;;6.38;;
36651;SDS011;53334;51.976;20.144;2023-05-25T03:12:18;7.10;;;5.88;;
36651;SDS011;53334;51.976;20.144;2023-05-25T03:14:51;6.55;;;5.95;;
36651;SDS011;53334;51.976;20.144;2023-05-25T03:17:25;7.55;;;6.72;;
36651;SDS011;53334;51.976;20.144;2023-05-25T03:19:59;7.72;;;6.40;;
36651;SDS011;53334;51.976;20.144;2023-05-25T03:25:08;7.43;;;6.53;;
36651;SDS011;53334;51.976;20.144;2023-05-25T03:27:43;5.75;;;5.20;;
36651;SDS011;53334;51.976;20.144;2023-05-25T03:30:17;6.88;;;5.82;;
36651;SDS011;53334;51.976;20.144;2023-05-25T03:35:24;6.22;;;5.63;;
36651;SDS011;53334;51.976;20.144;2023-05-25T03:37:57;6.18;;;5.65;;
36651;SDS011;53334;51.976;20.144;2023-05-25T03:40:32;6.35;;;5.75;;
36651;SDS011;53334;51.976;20.144;2023-05-25T03:43:05;7.32;;;6.63;;
36651;SDS011;53334;51.976;20.144;2023-05-25T03:45:39;7.38;;;6.25;;
36651;SDS011;53334;51.976;20.144;2023-05-25T03:48:13;6.80;;;6.10;;
36651;SDS011;53334;51.976;20.144;2023-05-25T03:50:46;9.95;;;6.65;;
36651;SDS011;53334;51.976;20.144;2023-05-25T03:53:20;6.72;;;6.13;;
36651;SDS011;53334;51.976;20.144;2023-05-25T03:55:54;7.95;;;6.55;;
36651;SDS011;53334;51.976;20.144;2023-05-25T03:58:28;6.45;;;5.90;;
36651;SDS011;53334;51.976;20.144;2023-05-25T04:01:01;7.60;;;6.78;;
36651;SDS011;53334;51.976;20.144;2023-05-25T04:03:36;6.25;;;5.65;;
36651;SDS011;53334;51.976;20.144;2023-05-25T04:06:09;7.03;;;5.60;;
36651;SDS011;53334;51.976;20.144;2023-05-25T04:08:43;6.78;;;5.95;;
36651;SDS011;53334;51.976;20.144;2023-05-25T04:11:17;9.63;;;5.60;;
36651;SDS011;53334;51.976;20.144;2023-05-25T04:13:51;7.32;;;5.82;;
36651;SDS011;53334;51.976;20.144;2023-05-25T04:16:27;6.05;;;5.55;;
36651;SDS011;53334;51.976;20.144;2023-05-25T04:19:00;6.70;;;5.90;;
36651;SDS011;53334;51.976;20.144;2023-05-25T04:24:07;5.60;;;5.07;;
36651;SDS011;53334;51.976;20.144;2023-05-25T04:26:42;7.75;;;6.97;;
36651;SDS011;53334;51.976;20.144;2023-05-25T04:29:17;6.05;;;5.45;;
36651;SDS011;53334;51.976;20.144;2023-05-25T04:32:19;6.65;;;5.68;;
36651;SDS011;53334;51.976;20.144;2023-05-25T04:35:17;6.57;;;4.95;;
36651;SDS011;53334;51.976;20.144;2023-05-25T04:37:52;6.53;;;5.85;;
36651;SDS011;53334;51.976;20.144;2023-05-25T04:40:28;6.22;;;5.63;;
36651;SDS011;53334;51.976;20.144;2023-05-25T04:43:05;7.13;;;6.00;;
36651;SDS011;53334;51.976;20.144;2023-05-25T04:45:40;6.38;;;5.60;;
36651;SDS011;53334;51.976;20.144;2023-05-25T04:48:14;5.65;;;5.10;;
36651;SDS011;53334;51.976;20.144;2023-05-25T04:50:48;6.88;;;6.18;;
36651;SDS011;53334;51.976;20.144;2023-05-25T04:53:22;6.18;;;5.03;;
36651;SDS011;53334;51.976;20.144;2023-05-25T04:55:56;5.70;;;5.20;;
36651;SDS011;53334;51.976;20.144;2023-05-25T04:58:30;5.72;;;5.25;;
36651;SDS011;53334;51.976;20.144;2023-05-25T05:01:04;5.85;;;5.35;;
36651;SDS011;53334;51.976;20.144;2023-05-25T05:03:37;5.72;;;5.20;;
36651;SDS011;53334;51.976;20.144;2023-05-25T05:06:11;8.25;;;5.78;;
36651;SDS011;53334;51.976;20.144;2023-05-25T05:08:44;6.07;;;5.47;;
36651;SDS011;53334;51.976;20.144;2023-05-25T05:11:18;6.32;;;5.72;;
36651;SDS011;53334;51.976;20.144;2023-05-25T05:13:53;6.22;;;5.13;;
36651;SDS011;53334;51.976;20.144;2023-05-25T05:16:27;6.65;;;5.32;;
36651;SDS011;53334;51.976;20.144;2023-05-25T05:19:05;6.93;;;6.10;;
36651;SDS011;53334;51.976;20.144;2023-05-25T05:21:38;6.75;;;6.05;;
36651;SDS011;53334;51.976;20.144;2023-05-25T05:24:12;6.97;;;5.65;;
36651;SDS011;53334;51.976;20.144;2023-05-25T05:26:45;7.15;;;6.22;;
36651;SDS011;53334;51.976;20.144;2023-05-25T05:29:28;6.32;;;5.55;;
36651;SDS011;53334;51.976;20.144;2023-05-25T05:32:02;20.17;;;6.75;;
36651;SDS011;53334;51.976;20.144;2023-05-25T05:34:36;7.28;;;6.55;;
36651;SDS011;53334;51.976;20.144;2023-05-25T05:37:16;7.28;;;6.55;;
36651;SDS011;53334;51.976;20.144;2023-05-25T05:39:50;9.05;;;7.43;;
36651;SDS011;53334;51.976;20.144;2023-05-25T05:42:24;10.23;;;8.52;;
36651;SDS011;53334;51.976;20.144;2023-05-25T05:44:59;10.88;;;8.80;;
36651;SDS011;53334;51.976;20.144;2023-05-25T05:47:32;13.25;;;9.20;;
36651;SDS011;53334;51.976;20.144;2023-05-25T05:50:06;11.43;;;8.30;;
36651;SDS011;53334;51.976;20.144;2023-05-25T05:52:41;14.35;;;9.20;;
36651;SDS011;53334;51.976;20.144;2023-05-25T05:55:15;11.48;;;10.27;;
36651;SDS011;53334;51.976;20.144;2023-05-25T05:57:48;12.57;;;9.95;;
36651;SDS011;53334;51.976;20.144;2023-05-25T06:02:57;12.93;;;10.43;;
36651;SDS011;53334;51.976;20.144;2023-05-25T06:05:33;16.23;;;11.30;;
36651;SDS011;53334;51.976;20.144;2023-05-25T06:08:06;11.15;;;9.88;;
36651;SDS011;53334;51.976;20.144;2023-05-25T06:10:40;17.05;;;12.10;;
36651;SDS011;53334;51.976;20.144;2023-05-25T06:13:14;14.48;;;10.18;;
36651;SDS011;53334;51.976;20.144;2023-05-25T06:15:48;18.13;;;10.18;;
36651;SDS011;53334;51.976;20.144;2023-05-25T06:18:26;13.02;;;9.77;;
36651;SDS011;53334;51.976;20.144;2023-05-25T06:21:01;13.68;;;9.60;;
36651;SDS011;53334;51.976;20.144;2023-05-25T06:23:35;12.48;;;9.18;;
36651;SDS011;53334;51.976;20.144;2023-05-25T06:26:08;10.27;;;8.68;;
36651;SDS011;53334;51.976;20.144;2023-05-25T06:28:41;12.98;;;8.90;;
36651;SDS011;53334;51.976;20.144;2023-05-25T06:31:17;15.07;;;8.52;;
36651;SDS011;53334;51.976;20.144;2023-05-25T06:33:50;12.38;;;8.30;;
36651;SDS011;53334;51.976;20.144;2023-05-25T06:38:58;11.80;;;7.80;;
36651;SDS011;53334;51.976;20.144;2023-05-25T06:41:31;17.30;;;8.75;;
36651;SDS011;53334;51.976;20.144;2023-05-25T06:44:05;13.77;;;7.53;;
36651;SDS011;53334;51.976;20.144;2023-05-25T06:46:50;11.68;;;6.57;;
36651;SDS011;53334;51.976;20.144;2023-05-25T06:49:24;12.45;;;7.10;;
36651;SDS011;53334;51.976;20.144;2023-05-25T06:51:57;12.25;;;7.32;;
36651;SDS011;53334;51.976;20.144;2023-05-25T06:54:30;11.50;;;7.18;;
36651;SDS011;53334;51.976;20.144;2023-05-25T06:57:04;14.18;;;7.20;;
36651;SDS011;53334;51.976;20.144;2023-05-25T06:59:38;10.90;;;7.53;;
36651;SDS011;53334;51.976;20.144;2023-05-25T07:02:13;10.50;;;7.55;;
36651;SDS011;53334;51.976;20.144;2023-05-25T07:04:46;12.38;;;7.10;;
36651;SDS011;53334;51.976;20.144;2023-05-25T07:07:19;15.35;;;8.90;;
36651;SDS011;53334;51.976;20.144;2023-05-25T07:09:53;13.90;;;7.65;;
36651;SDS011;53334;51.976;20.144;2023-05-25T07:12:26;12.52;;;7.55;;
36651;SDS011;53334;51.976;20.144;2023-05-25T07:15:00;14.52;;;7.85;;
36651;SDS011;53334;51.976;20.144;2023-05-25T07:17:34;8.93;;;7.07;;
36651;SDS011;53334;51.976;20.144;2023-05-25T07:20:08;11.63;;;7.72;;
36651;SDS011;53334;51.976;20.144;2023-05-25T07:22:45;13.70;;;7.15;;
36651;SDS011;53334;51.976;20.144;2023-05-25T07:25:19;15.27;;;7.65;;
36651;SDS011;53334;51.976;20.144;2023-05-25T07:27:52;9.27;;;7.03;;
36651;SDS011;53334;51.976;20.144;2023-05-25T07:30:26;10.45;;;7.45;;
36651;SDS011;53334;51.976;20.144;2023-05-25T07:33:01;8.13;;;7.00;;
36651;SDS011;53334;51.976;20.144;2023-05-25T07:35:34;11.88;;;7.35;;
36651;SDS011;53334;51.976;20.144;2023-05-25T07:38:08;11.90;;;7.55;;
36651;SDS011;53334;51.976;20.144;2023-05-25T07:40:41;12.18;;;7.35;;
36651;SDS011;53334;51.976;20.144;2023-05-25T07:43:15;11.60;;;6.50;;
36651;SDS011;53334;51.976;20.144;2023-05-25T07:45:48;12.15;;;6.82;;
36651;SDS011;53334;51.976;20.144;2023-05-25T07:48:23;10.25;;;7.35;;
36651;SDS011;53334;51.976;20.144;2023-05-25T07:50:56;13.60;;;7.30;;
36651;SDS011;53334;51.976;20.144;2023-05-25T07:53:29;9.90;;;7.80;;
36651;SDS011;53334;51.976;20.144;2023-05-25T07:56:03;12.40;;;7.78;;
36651;SDS011;53334;51.976;20.144;2023-05-25T07:58:41;11.77;;;7.40;;
36651;SDS011;53334;51.976;20.144;2023-05-25T08:01:14;10.90;;;7.90;;
36651;SDS011;53334;51.976;20.144;2023-05-25T08:03:49;10.10;;;7.20;;
36651;SDS011;53334;51.976;20.144;2023-05-25T08:06:22;16.02;;;7.95;;
36651;SDS011;53334;51.976;20.144;2023-05-25T08:08:56;11.95;;;8.13;;
36651;SDS011;53334;51.976;20.144;2023-05-25T08:11:29;13.65;;;7.60;;
36651;SDS011;53334;51.976;20.144;2023-05-25T08:14:03;13.75;;;8.00;;
36651;SDS011;53334;51.976;20.144;2023-05-25T08:16:36;15.07;;;7.57;;
36651;SDS011;53334;51.976;20.144;2023-05-25T08:19:11;12.43;;;8.00;;
36651;SDS011;53334;51.976;20.144;2023-05-25T08:21:44;11.55;;;8.02;;
36651;SDS011;53334;51.976;20.144;2023-05-25T08:24:17;12.02;;;7.85;;
36651;SDS011;53334;51.976;20.144;2023-05-25T08:26:50;11.30;;;7.68;;
36651;SDS011;53334;51.976;20.144;2023-05-25T08:29:25;12.07;;;8.00;;
36651;SDS011;53334;51.976;20.144;2023-05-25T08:31:59;16.95;;;8.52;;
36651;SDS011;53334;51.976;20.144;2023-05-25T08:34:33;16.20;;;8.55;;
36651;SDS011;53334;51.976;20.144;2023-05-25T08:37:07;10.15;;;8.75;;
36651;SDS011;53334;51.976;20.144;2023-05-25T08:39:40;15.45;;;8.55;;
36651;SDS011;53334;51.976;20.144;2023-05-25T08:42:13;12.95;;;8.82;;
36651;SDS011;53334;51.976;20.144;2023-05-25T08:44:47;12.88;;;9.20;;
36651;SDS011;53334;51.976;20.144;2023-05-25T08:47:20;10.57;;;8.52;;
36651;SDS011;53334;51.976;20.144;2023-05-25T08:49:56;9.20;;;7.88;;
36651;SDS011;53334;51.976;20.144;2023-05-25T08:52:30;9.82;;;7.85;;
36651;SDS011;53334;51.976;20.144;2023-05-25T08:55:06;8.95;;;7.90;;
36651;SDS011;53334;51.976;20.144;2023-05-25T08:57:44;11.25;;;8.70;;
36651;SDS011;53334;51.976;20.144;2023-05-25T09:00:24;8.38;;;7.57;;
36651;SDS011;53334;51.976;20.144;2023-05-25T09:03:05;10.57;;;6.95;;
36651;SDS011;53334;51.976;20.144;2023-05-25T09:05:43;10.30;;;7.65;;
36651;SDS011;53334;51.976;20.144;2023-05-25T09:08:17;8.40;;;6.97;;
36651;SDS011;53334;51.976;20.144;2023-05-25T09:10:53;13.88;;;8.15;;
36651;SDS011;53334;51.976;20.144;2023-05-25T09:13:27;13.63;;;7.75;;
36651;SDS011;53334;51.976;20.144;2023-05-25T09:16:01;12.55;;;8.23;;
36651;SDS011;53334;51.976;20.144;2023-05-25T09:18:34;12.95;;;8.27;;
36651;SDS011;53334;51.976;20.144;2023-05-25T09:21:09;15.18;;;8.27;;
36651;SDS011;53334;51.976;20.144;2023-05-25T09:23:43;10.85;;;7.88;;
36651;SDS011;53334;51.976;20.144;2023-05-25T09:26:16;13.48;;;7.65;;
36651;SDS011;53334;51.976;20.144;2023-05-25T09:28:50;10.82;;;7.20;;
36651;SDS011;53334;51.976;20.144;2023-05-25T09:31:24;11.02;;;7.70;;
36651;SDS011;53334;51.976;20.144;2023-05-25T09:33:57;12.57;;;8.23;;
36651;SDS011;53334;51.976;20.144;2023-05-25T09:36:33;16.92;;;8.15;;
36651;SDS011;53334;51.976;20.144;2023-05-25T09:39:11;12.13;;;8.18;;
36651;SDS011;53334;51.976;20.144;2023-05-25T09:41:47;10.02;;;7.57;;
36651;SDS011;53334;51.976;20.144;2023-05-25T09:44:21;9.68;;;7.85;;
36651;SDS011;53334;51.976;20.144;2023-05-25T09:46:54;9.73;;;8.10;;
36651;SDS011;53334;51.976;20.144;2023-05-25T09:49:28;9.85;;;7.50;;
36651;SDS011;53334;51.976;20.144;2023-05-25T09:52:03;14.23;;;7.75;;
36651;SDS011;53334;51.976;20.144;2023-05-25T09:54:37;9.98;;;8.80;;
36651;SDS011;53334;51.976;20.144;2023-05-25T09:57:11;10.38;;;7.55;;
36651;SDS011;53334;51.976;20.144;2023-05-25T09:59:44;9.65;;;7.38;;
36651;SDS011;53334;51.976;20.144;2023-05-25T10:02:18;13.00;;;8.75;;
36651;SDS011;53334;51.976;20.144;2023-05-25T10:04:52;10.18;;;7.43;;
36651;SDS011;53334;51.976;20.144;2023-05-25T10:07:27;9.10;;;7.32;;
36651;SDS011;53334;51.976;20.144;2023-05-25T10:10:02;10.23;;;7.82;;
36651;SDS011;53334;51.976;20.144;2023-05-25T10:12:39;12.60;;;7.45;;
36651;SDS011;53334;51.976;20.144;2023-05-25T10:15:13;10.00;;;7.72;;
36651;SDS011;53334;51.976;20.144;2023-05-25T10:17:51;13.32;;;8.07;;
36651;SDS011;53334;51.976;20.144;2023-05-25T10:20:26;13.57;;;7.72;;
36651;SDS011;53334;51.976;20.144;2023-05-25T10:23:07;11.60;;;7.32;;
36651;SDS011;53334;51.976;20.144;2023-05-25T10:25:43;10.50;;;7.25;;
36651;SDS011;53334;51.976;20.144;2023-05-25T10:28:18;11.98;;;7.70;;
36651;SDS011;53334;51.976;20.144;2023-05-25T10:30:58;17.40;;;7.90;;
36651;SDS011;53334;51.976;20.144;2023-05-25T10:33:32;11.23;;;7.10;;
36651;SDS011;53334;51.976;20.144;2023-05-25T10:36:06;8.43;;;6.90;;
36651;SDS011;53334;51.976;20.144;2023-05-25T10:38:43;12.15;;;7.68;;
36651;SDS011;53334;51.976;20.144;2023-05-25T10:41:18;13.98;;;8.35;;
36651;SDS011;53334;51.976;20.144;2023-05-25T10:43:52;13.82;;;8.25;;
36651;SDS011;53334;51.976;20.144;2023-05-25T10:46:25;12.90;;;9.02;;
36651;SDS011;53334;51.976;20.144;2023-05-25T10:49:00;14.60;;;9.88;;
36651;SDS011;53334;51.976;20.144;2023-05-25T10:51:36;10.52;;;7.85;;
36651;SDS011;53334;51.976;20.144;2023-05-25T10:54:13;10.55;;;8.27;;
36651;SDS011;53334;51.976;20.144;2023-05-25T10:59:42;15.60;;;9.93;;
36651;SDS011;53334;51.976;20.144;2023-05-25T11:02:19;9.98;;;7.60;;
36651;SDS011;53334;51.976;20.144;2023-05-25T11:08:03;10.63;;;8.10;;
36651;SDS011;53334;51.976;20.144;2023-05-25T11:10:49;15.70;;;8.77;;
36651;SDS011;53334;51.976;20.144;2023-05-25T11:13:34;12.93;;;8.02;;
36651;SDS011;53334;51.976;20.144;2023-05-25T11:16:17;14.25;;;8.52;;
36651;SDS011;53334;51.976;20.144;2023-05-25T11:18:53;13.15;;;8.52;;
36651;SDS011;53334;51.976;20.144;2023-05-25T11:21:41;10.05;;;8.20;;
36651;SDS011;53334;51.976;20.144;2023-05-25T11:24:16;11.10;;;7.00;;
36651;SDS011;53334;51.976;20.144;2023-05-25T11:26:54;17.23;;;9.00;;
36651;SDS011;53334;51.976;20.144;2023-05-25T11:29:29;11.88;;;7.90;;
36651;SDS011;53334;51.976;20.144;2023-05-25T11:32:03;15.77;;;8.15;;
36651;SDS011;53334;51.976;20.144;2023-05-25T11:37:12;11.43;;;7.50;;
36651;SDS011;53334;51.976;20.144;2023-05-25T11:39:48;11.93;;;7.70;;
36651;SDS011;53334;51.976;20.144;2023-05-25T11:42:23;11.75;;;8.00;;
36651;SDS011;53334;51.976;20.144;2023-05-25T11:45:00;13.48;;;7.93;;
36651;SDS011;53334;51.976;20.144;2023-05-25T11:47:34;14.98;;;9.02;;
36651;SDS011;53334;51.976;20.144;2023-05-25T11:50:13;14.48;;;7.90;;
36651;SDS011;53334;51.976;20.144;2023-05-25T11:52:47;18.75;;;8.13;;
36651;SDS011;53334;51.976;20.144;2023-05-25T11:55:21;12.63;;;8.18;;
36651;SDS011;53334;51.976;20.144;2023-05-25T11:57:56;20.52;;;10.18;;
36651;SDS011;53334;51.976;20.144;2023-05-25T12:00:30;12.25;;;8.63;;
36651;SDS011;53334;51.976;20.144;2023-05-25T12:03:03;12.85;;;9.40;;
36651;SDS011;53334;51.976;20.144;2023-05-25T12:05:37;12.60;;;8.38;;
36651;SDS011;53334;51.976;20.144;2023-05-25T12:10:49;18.30;;;14.40;;
36651;SDS011;53334;51.976;20.144;2023-05-25T12:13:24;24.30;;;14.02;;
36651;SDS011;53334;51.976;20.144;2023-05-25T12:15:58;21.88;;;16.27;;
36651;SDS011;53334;51.976;20.144;2023-05-25T12:18:32;21.73;;;18.77;;
36651;SDS011;53334;51.976;20.144;2023-05-25T12:21:05;27.40;;;19.25;;
36651;SDS011;53334;51.976;20.144;2023-05-25T12:23:40;27.80;;;21.27;;
36651;SDS011;53334;51.976;20.144;2023-05-25T12:26:14;30.40;;;21.58;;
36651;SDS011;53334;51.976;20.144;2023-05-25T12:29:01;30.00;;;24.42;;
36651;SDS011;53334;51.976;20.144;2023-05-25T12:31:36;28.10;;;22.70;;
36651;SDS011;53334;51.976;20.144;2023-05-25T12:34:10;33.72;;;25.80;;
36651;SDS011;53334;51.976;20.144;2023-05-25T12:36:45;31.38;;;25.45;;
36651;SDS011;53334;51.976;20.144;2023-05-25T12:39:30;36.00;;;25.85;;
36651;SDS011;53334;51.976;20.144;2023-05-25T12:42:11;30.23;;;26.95;;
36651;SDS011;53334;51.976;20.144;2023-05-25T12:44:47;41.72;;;28.33;;
36651;SDS011;53334;51.976;20.144;2023-05-25T12:47:28;37.80;;;27.08;;
36651;SDS011;53334;51.976;20.144;2023-05-25T12:50:09;33.28;;;26.65;;
36651;SDS011;53334;51.976;20.144;2023-05-25T12:52:44;32.97;;;24.42;;
36651;SDS011;53334;51.976;20.144;2023-05-25T12:55:21;38.38;;;24.83;;
36651;SDS011;53334;51.976;20.144;2023-05-25T12:58:00;28.67;;;22.70;;
36651;SDS011;53334;51.976;20.144;2023-05-25T13:00:37;29.73;;;22.35;;
36651;SDS011;53334;51.976;20.144;2023-05-25T13:03:11;34.78;;;22.00;;
36651;SDS011;53334;51.976;20.144;2023-05-25T13:05:45;23.20;;;20.65;;
36651;SDS011;53334;51.976;20.144;2023-05-25T13:08:18;28.63;;;21.83;;
36651;SDS011;53334;51.976;20.144;2023-05-25T13:10:52;27.67;;;19.58;;
36651;SDS011;53334;51.976;20.144;2023-05-25T13:13:25;28.23;;;19.08;;
36651;SDS011;53334;51.976;20.144;2023-05-25T13:16:00;25.30;;;20.00;;
36651;SDS011;53334;51.976;20.144;2023-05-25T13:18:33;35.60;;;20.08;;
36651;SDS011;53334;51.976;20.144;2023-05-25T13:21:07;25.45;;;18.02;;
36651;SDS011;53334;51.976;20.144;2023-05-25T13:23:40;269.30;;;112.18;;
36651;SDS011;53334;51.976;20.144;2023-05-25T13:26:14;780.45;;;386.08;;
36651;SDS011;53334;51.976;20.144;2023-05-25T13:28:47;442.38;;;194.00;;
36651;SDS011;53334;51.976;20.144;2023-05-25T13:31:22;359.67;;;146.57;;
36651;SDS011;53334;51.976;20.144;2023-05-25T13:33:56;328.85;;;141.30;;
36651;SDS011;53334;51.976;20.144;2023-05-25T13:36:29;254.27;;;113.60;;
36651;SDS011;53334;51.976;20.144;2023-05-25T13:39:05;228.02;;;96.00;;
36651;SDS011;53334;51.976;20.144;2023-05-25T13:41:41;217.05;;;93.75;;
36651;SDS011;53334;51.976;20.144;2023-05-25T13:44:14;259.38;;;104.75;;
36651;SDS011;53334;51.976;20.144;2023-05-25T13:46:49;438.95;;;182.20;;
36651;SDS011;53334;51.976;20.144;2023-05-25T13:49:23;526.55;;;229.77;;
36651;SDS011;53334;51.976;20.144;2023-05-25T13:51:57;440.58;;;175.80;;
36651;SDS011;53334;51.976;20.144;2023-05-25T13:54:30;442.08;;;176.43;;
36651;SDS011;53334;51.976;20.144;2023-05-25T13:57:03;434.02;;;177.98;;
36651;SDS011;53334;51.976;20.144;2023-05-25T13:59:37;449.70;;;182.85;;
36651;SDS011;53334;51.976;20.144;2023-05-25T14:02:12;427.73;;;165.98;;
36651;SDS011;53334;51.976;20.144;2023-05-25T14:04:45;357.40;;;149.10;;
36651;SDS011;53334;51.976;20.144;2023-05-25T14:07:19;332.65;;;140.95;;
36651;SDS011;53334;51.976;20.144;2023-05-25T14:09:52;334.23;;;135.15;;
36651;SDS011;53334;51.976;20.144;2023-05-25T14:12:25;273.73;;;125.03;;
36651;SDS011;53334;51.976;20.144;2023-05-25T14:14:58;303.17;;;122.85;;
36651;SDS011;53334;51.976;20.144;2023-05-25T14:17:33;264.55;;;112.60;;
36651;SDS011;53334;51.976;20.144;2023-05-25T14:20:07;281.02;;;119.93;;
36651;SDS011;53334;51.976;20.144;2023-05-25T14:22:40;274.15;;;115.32;;
36651;SDS011;53334;51.976;20.144;2023-05-25T14:25:14;248.55;;;105.18;;
36651;SDS011;53334;51.976;20.144;2023-05-25T14:27:47;229.63;;;107.50;;
36651;SDS011;53334;51.976;20.144;2023-05-25T14:30:20;208.65;;;96.05;;
36651;SDS011;53334;51.976;20.144;2023-05-25T14:32:55;228.63;;;97.38;;
36651;SDS011;53334;51.976;20.144;2023-05-25T14:35:28;206.65;;;92.40;;
36651;SDS011;53334;51.976;20.144;2023-05-25T14:38:01;184.10;;;79.63;;
36651;SDS011;53334;51.976;20.144;2023-05-25T14:40:34;143.38;;;68.72;;
36651;SDS011;53334;51.976;20.144;2023-05-25T14:43:08;160.38;;;69.78;;
36651;SDS011;53334;51.976;20.144;2023-05-25T14:45:41;151.48;;;68.32;;
36651;SDS011;53334;51.976;20.144;2023-05-25T14:48:16;166.68;;;71.40;;
36651;SDS011;53334;51.976;20.144;2023-05-25T14:50:53;160.77;;;67.00;;
36651;SDS011;53334;51.976;20.144;2023-05-25T14:53:29;133.65;;;60.70;;
36651;SDS011;53334;51.976;20.144;2023-05-25T14:56:03;124.82;;;61.45;;
36651;SDS011;53334;51.976;20.144;2023-05-25T14:58:37;137.18;;;61.85;;
36651;SDS011;53334;51.976;20.144;2023-05-25T15:01:10;125.97;;;58.85;;
36651;SDS011;53334;51.976;20.144;2023-05-25T15:03:45;125.95;;;58.30;;
36651;SDS011;53334;51.976;20.144;2023-05-25T15:06:19;121.00;;;56.63;;
36651;SDS011;53334;51.976;20.144;2023-05-25T15:08:52;111.03;;;51.72;;
36651;SDS011;53334;51.976;20.144;2023-05-25T15:11:25;111.07;;;52.65;;
36651;SDS011;53334;51.976;20.144;2023-05-25T15:13:58;104.10;;;53.08;;
36651;SDS011;53334;51.976;20.144;2023-05-25T15:19:07;93.88;;;48.13;;
36651;SDS011;53334;51.976;20.144;2023-05-25T15:21:44;95.35;;;46.67;;
36651;SDS011;53334;51.976;20.144;2023-05-25T15:24:17;87.95;;;44.58;;
36651;SDS011;53334;51.976;20.144;2023-05-25T15:26:51;78.47;;;41.60;;
36651;SDS011;53334;51.976;20.144;2023-05-25T15:29:24;81.13;;;44.05;;
36651;SDS011;53334;51.976;20.144;2023-05-25T15:31:57;82.88;;;41.45;;
36651;SDS011;53334;51.976;20.144;2023-05-25T15:34:32;84.03;;;43.40;;
36651;SDS011;53334;51.976;20.144;2023-05-25T15:37:07;85.20;;;40.40;;